sensor_id;sensor_type;location;lat;lon;timestamp;P1;durP1;ratioP1;P2;durP2;ratioP2
34876;SDS011;21086;44.780;17.194;2022-12-07T00:00:40;27.80;;;15.13;;
34876;SDS011;21086;44.780;17.194;2022-12-07T00:12:08;21.45;;;13.75;;
34876;SDS011;21086;44.780;17.194;2022-12-07T00:14:36;22.58;;;12.70;;
34876;SDS011;21086;44.780;17.194;2022-12-07T00:17:07;25.75;;;14.32;;
34876;SDS011;21086;44.780;17.194;2022-12-07T00:19:34;22.13;;;14.52;;
34876;SDS011;21086;44.780;17.194;2022-12-07T00:22:02;20.15;;;12.90;;
34876;SDS011;21086;44.780;17.194;2022-12-07T00:24:29;23.30;;;12.75;;
34876;SDS011;21086;44.780;17.194;2022-12-07T00:26:57;25.10;;;14.52;;
34876;SDS011;21086;44.780;17.194;2022-12-07T00:37:10;28.15;;;16.35;;
34876;SDS011;21086;44.780;17.194;2022-12-07T00:51:50;27.08;;;15.77;;
34876;SDS011;21086;44.780;17.194;2022-12-07T00:54:20;28.05;;;15.07;;
34876;SDS011;21086;44.780;17.194;2022-12-07T00:56:49;23.50;;;15.65;;
34876;SDS011;21086;44.780;17.194;2022-12-07T00:59:21;25.95;;;16.63;;
34876;SDS011;21086;44.780;17.194;2022-12-07T01:01:48;26.90;;;16.33;;
34876;SDS011;21086;44.780;17.194;2022-12-07T01:04:16;26.63;;;16.70;;
34876;SDS011;21086;44.780;17.194;2022-12-07T01:06:43;25.23;;;15.55;;
34876;SDS011;21086;44.780;17.194;2022-12-07T01:09:11;20.08;;;13.27;;
34876;SDS011;21086;44.780;17.194;2022-12-07T01:11:39;22.92;;;14.68;;
34876;SDS011;21086;44.780;17.194;2022-12-07T01:14:08;24.23;;;14.40;;
34876;SDS011;21086;44.780;17.194;2022-12-07T01:16:36;23.23;;;14.30;;
34876;SDS011;21086;44.780;17.194;2022-12-07T01:19:06;22.45;;;14.65;;
34876;SDS011;21086;44.780;17.194;2022-12-07T01:21:34;21.70;;;14.15;;
34876;SDS011;21086;44.780;17.194;2022-12-07T01:24:05;22.25;;;13.45;;
34876;SDS011;21086;44.780;17.194;2022-12-07T01:45:37;21.17;;;13.55;;
34876;SDS011;21086;44.780;17.194;2022-12-07T01:48:07;15.88;;;10.98;;
34876;SDS011;21086;44.780;17.194;2022-12-07T01:50:37;22.08;;;13.02;;
34876;SDS011;21086;44.780;17.194;2022-12-07T01:53:06;20.65;;;13.77;;
34876;SDS011;21086;44.780;17.194;2022-12-07T02:01:00;20.35;;;14.13;;
34876;SDS011;21086;44.780;17.194;2022-12-07T02:03:32;20.83;;;13.77;;
34876;SDS011;21086;44.780;17.194;2022-12-07T02:06:04;22.92;;;14.73;;
34876;SDS011;21086;44.780;17.194;2022-12-07T02:08:36;21.05;;;14.88;;
34876;SDS011;21086;44.780;17.194;2022-12-07T02:11:04;21.65;;;13.80;;
34876;SDS011;21086;44.780;17.194;2022-12-07T02:13:33;21.77;;;14.07;;
34876;SDS011;21086;44.780;17.194;2022-12-07T02:16:18;19.63;;;12.98;;
34876;SDS011;21086;44.780;17.194;2022-12-07T02:22:51;18.30;;;12.27;;
34876;SDS011;21086;44.780;17.194;2022-12-07T02:25:14;17.45;;;11.70;;
34876;SDS011;21086;44.780;17.194;2022-12-07T02:28:06;16.45;;;11.82;;
34876;SDS011;21086;44.780;17.194;2022-12-07T02:31:06;20.52;;;13.43;;
34876;SDS011;21086;44.780;17.194;2022-12-07T02:33:42;16.70;;;11.73;;
34876;SDS011;21086;44.780;17.194;2022-12-07T02:36:27;18.60;;;12.40;;
34876;SDS011;21086;44.780;17.194;2022-12-07T02:39:08;18.60;;;12.48;;
34876;SDS011;21086;44.780;17.194;2022-12-07T02:41:54;17.48;;;11.88;;
34876;SDS011;21086;44.780;17.194;2022-12-07T02:44:25;20.95;;;13.02;;
34876;SDS011;21086;44.780;17.194;2022-12-07T02:46:55;16.33;;;12.32;;
34876;SDS011;21086;44.780;17.194;2022-12-07T02:49:25;21.63;;;13.65;;
34876;SDS011;21086;44.780;17.194;2022-12-07T02:51:54;18.52;;;12.93;;
34876;SDS011;21086;44.780;17.194;2022-12-07T02:54:21;16.25;;;11.70;;
34876;SDS011;21086;44.780;17.194;2022-12-07T02:56:55;14.93;;;10.52;;
34876;SDS011;21086;44.780;17.194;2022-12-07T03:08:30;18.98;;;12.85;;
34876;SDS011;21086;44.780;17.194;2022-12-07T03:13:56;19.38;;;11.95;;
34876;SDS011;21086;44.780;17.194;2022-12-07T03:16:33;17.63;;;11.45;;
34876;SDS011;21086;44.780;17.194;2022-12-07T03:19:15;18.35;;;11.70;;
34876;SDS011;21086;44.780;17.194;2022-12-07T03:21:46;16.88;;;11.70;;
34876;SDS011;21086;44.780;17.194;2022-12-07T03:24:19;15.25;;;10.63;;
34876;SDS011;21086;44.780;17.194;2022-12-07T03:26:52;17.83;;;11.82;;
34876;SDS011;21086;44.780;17.194;2022-12-07T03:30:10;15.20;;;10.63;;
34876;SDS011;21086;44.780;17.194;2022-12-07T03:33:27;17.80;;;11.15;;
34876;SDS011;21086;44.780;17.194;2022-12-07T03:35:52;16.50;;;11.80;;
34876;SDS011;21086;44.780;17.194;2022-12-07T03:38:25;14.45;;;10.48;;
34876;SDS011;21086;44.780;17.194;2022-12-07T03:41:09;14.65;;;11.30;;
34876;SDS011;21086;44.780;17.194;2022-12-07T03:43:44;16.20;;;10.98;;
34876;SDS011;21086;44.780;17.194;2022-12-07T03:51:57;15.68;;;10.60;;
34876;SDS011;21086;44.780;17.194;2022-12-07T03:54:48;19.48;;;12.23;;
34876;SDS011;21086;44.780;17.194;2022-12-07T03:57:16;15.18;;;10.35;;
34876;SDS011;21086;44.780;17.194;2022-12-07T03:59:44;17.00;;;11.10;;
34876;SDS011;21086;44.780;17.194;2022-12-07T04:02:13;17.52;;;11.20;;
34876;SDS011;21086;44.780;17.194;2022-12-07T04:04:41;16.30;;;11.15;;
34876;SDS011;21086;44.780;17.194;2022-12-07T04:07:09;14.95;;;10.25;;
34876;SDS011;21086;44.780;17.194;2022-12-07T04:09:37;13.65;;;9.63;;
34876;SDS011;21086;44.780;17.194;2022-12-07T04:12:05;12.82;;;9.82;;
34876;SDS011;21086;44.780;17.194;2022-12-07T04:14:32;11.77;;;8.15;;
34876;SDS011;21086;44.780;17.194;2022-12-07T04:16:59;12.73;;;9.20;;
34876;SDS011;21086;44.780;17.194;2022-12-07T04:19:26;17.55;;;11.75;;
34876;SDS011;21086;44.780;17.194;2022-12-07T04:21:55;15.98;;;9.80;;
34876;SDS011;21086;44.780;17.194;2022-12-07T04:24:23;14.45;;;10.15;;
34876;SDS011;21086;44.780;17.194;2022-12-07T04:26:51;15.82;;;10.57;;
34876;SDS011;21086;44.780;17.194;2022-12-07T04:29:18;14.70;;;10.60;;
34876;SDS011;21086;44.780;17.194;2022-12-07T04:31:45;14.07;;;9.68;;
34876;SDS011;21086;44.780;17.194;2022-12-07T04:34:13;16.40;;;11.35;;
34876;SDS011;21086;44.780;17.194;2022-12-07T04:36:42;15.65;;;10.10;;
34876;SDS011;21086;44.780;17.194;2022-12-07T04:39:14;13.88;;;9.27;;
34876;SDS011;21086;44.780;17.194;2022-12-07T04:41:54;14.35;;;9.85;;
34876;SDS011;21086;44.780;17.194;2022-12-07T04:44:21;14.57;;;10.13;;
34876;SDS011;21086;44.780;17.194;2022-12-07T04:46:49;14.13;;;10.00;;
34876;SDS011;21086;44.780;17.194;2022-12-07T04:49:18;12.50;;;8.85;;
34876;SDS011;21086;44.780;17.194;2022-12-07T04:51:45;16.90;;;10.80;;
34876;SDS011;21086;44.780;17.194;2022-12-07T04:54:13;14.18;;;9.90;;
34876;SDS011;21086;44.780;17.194;2022-12-07T04:56:42;14.50;;;10.23;;
34876;SDS011;21086;44.780;17.194;2022-12-07T04:59:10;14.95;;;10.57;;
34876;SDS011;21086;44.780;17.194;2022-12-07T05:01:38;16.17;;;11.10;;
34876;SDS011;21086;44.780;17.194;2022-12-07T05:04:05;18.45;;;12.30;;
34876;SDS011;21086;44.780;17.194;2022-12-07T05:06:32;15.23;;;9.88;;
34876;SDS011;21086;44.780;17.194;2022-12-07T05:09:00;18.75;;;12.10;;
34876;SDS011;21086;44.780;17.194;2022-12-07T05:11:27;21.40;;;12.52;;
34876;SDS011;21086;44.780;17.194;2022-12-07T05:14:24;17.38;;;11.10;;
34876;SDS011;21086;44.780;17.194;2022-12-07T05:16:51;14.98;;;10.20;;
34876;SDS011;21086;44.780;17.194;2022-12-07T05:19:19;17.70;;;12.80;;
34876;SDS011;21086;44.780;17.194;2022-12-07T05:21:47;18.60;;;10.52;;
34876;SDS011;21086;44.780;17.194;2022-12-07T05:24:14;15.77;;;11.05;;
34876;SDS011;21086;44.780;17.194;2022-12-07T05:26:43;21.70;;;13.45;;
34876;SDS011;21086;44.780;17.194;2022-12-07T05:29:12;23.38;;;13.45;;
34876;SDS011;21086;44.780;17.194;2022-12-07T05:31:40;20.73;;;13.07;;
34876;SDS011;21086;44.780;17.194;2022-12-07T05:34:08;28.20;;;16.83;;
34876;SDS011;21086;44.780;17.194;2022-12-07T05:36:35;23.30;;;12.38;;
34876;SDS011;21086;44.780;17.194;2022-12-07T05:39:02;29.05;;;16.10;;
34876;SDS011;21086;44.780;17.194;2022-12-07T05:41:29;22.60;;;13.40;;
34876;SDS011;21086;44.780;17.194;2022-12-07T05:44:15;27.75;;;16.05;;
34876;SDS011;21086;44.780;17.194;2022-12-07T05:46:42;30.88;;;18.17;;
34876;SDS011;21086;44.780;17.194;2022-12-07T05:49:09;18.50;;;13.00;;
34876;SDS011;21086;44.780;17.194;2022-12-07T05:51:35;13.10;;;9.65;;
34876;SDS011;21086;44.780;17.194;2022-12-07T05:54:03;15.95;;;10.93;;
34876;SDS011;21086;44.780;17.194;2022-12-07T05:56:30;15.43;;;11.45;;
34876;SDS011;21086;44.780;17.194;2022-12-07T05:58:56;15.32;;;11.02;;
34876;SDS011;21086;44.780;17.194;2022-12-07T06:01:42;18.13;;;13.15;;
34876;SDS011;21086;44.780;17.194;2022-12-07T06:04:09;18.77;;;13.45;;
34876;SDS011;21086;44.780;17.194;2022-12-07T06:06:36;18.10;;;13.00;;
34876;SDS011;21086;44.780;17.194;2022-12-07T06:09:04;15.60;;;10.85;;
34876;SDS011;21086;44.780;17.194;2022-12-07T06:11:31;24.20;;;14.75;;
34876;SDS011;21086;44.780;17.194;2022-12-07T06:14:16;23.55;;;15.10;;
34876;SDS011;21086;44.780;17.194;2022-12-07T06:16:43;27.65;;;18.40;;
34876;SDS011;21086;44.780;17.194;2022-12-07T06:19:11;28.15;;;17.27;;
34876;SDS011;21086;44.780;17.194;2022-12-07T06:21:38;27.35;;;17.05;;
34876;SDS011;21086;44.780;17.194;2022-12-07T06:24:06;27.23;;;15.23;;
34876;SDS011;21086;44.780;17.194;2022-12-07T06:26:33;22.90;;;15.25;;
34876;SDS011;21086;44.780;17.194;2022-12-07T06:29:00;23.25;;;15.23;;
34876;SDS011;21086;44.780;17.194;2022-12-07T06:31:27;28.17;;;20.00;;
34876;SDS011;21086;44.780;17.194;2022-12-07T06:34:02;30.33;;;21.13;;
34876;SDS011;21086;44.780;17.194;2022-12-07T06:36:33;33.08;;;22.50;;
34876;SDS011;21086;44.780;17.194;2022-12-07T06:39:00;44.35;;;28.58;;
34876;SDS011;21086;44.780;17.194;2022-12-07T06:41:27;33.75;;;23.92;;
34876;SDS011;21086;44.780;17.194;2022-12-07T06:43:54;29.80;;;18.42;;
34876;SDS011;21086;44.780;17.194;2022-12-07T06:46:22;35.83;;;22.80;;
34876;SDS011;21086;44.780;17.194;2022-12-07T06:48:50;37.45;;;24.65;;
34876;SDS011;21086;44.780;17.194;2022-12-07T06:51:17;38.10;;;26.00;;
34876;SDS011;21086;44.780;17.194;2022-12-07T06:53:45;38.00;;;24.83;;
34876;SDS011;21086;44.780;17.194;2022-12-07T06:56:12;35.97;;;25.63;;
34876;SDS011;21086;44.780;17.194;2022-12-07T06:58:40;35.25;;;23.33;;
34876;SDS011;21086;44.780;17.194;2022-12-07T07:01:14;25.65;;;17.73;;
34876;SDS011;21086;44.780;17.194;2022-12-07T07:03:43;22.88;;;15.40;;
34876;SDS011;21086;44.780;17.194;2022-12-07T07:06:11;22.70;;;15.55;;
34876;SDS011;21086;44.780;17.194;2022-12-07T07:08:39;26.45;;;16.35;;
34876;SDS011;21086;44.780;17.194;2022-12-07T07:11:07;22.70;;;13.63;;
34876;SDS011;21086;44.780;17.194;2022-12-07T07:13:35;23.80;;;17.30;;
34876;SDS011;21086;44.780;17.194;2022-12-07T07:16:02;27.73;;;18.33;;
34876;SDS011;21086;44.780;17.194;2022-12-07T07:18:29;31.27;;;19.15;;
34876;SDS011;21086;44.780;17.194;2022-12-07T07:20:56;28.95;;;17.80;;
34876;SDS011;21086;44.780;17.194;2022-12-07T07:23:23;24.73;;;16.17;;
34876;SDS011;21086;44.780;17.194;2022-12-07T07:25:50;33.88;;;21.95;;
34876;SDS011;21086;44.780;17.194;2022-12-07T07:28:17;26.23;;;18.75;;
34876;SDS011;21086;44.780;17.194;2022-12-07T07:30:44;20.55;;;14.88;;
34876;SDS011;21086;44.780;17.194;2022-12-07T07:33:12;19.90;;;12.93;;
34876;SDS011;21086;44.780;17.194;2022-12-07T07:35:40;19.48;;;14.60;;
34876;SDS011;21086;44.780;17.194;2022-12-07T07:38:08;23.00;;;14.80;;
34876;SDS011;21086;44.780;17.194;2022-12-07T07:40:34;21.17;;;14.88;;
34876;SDS011;21086;44.780;17.194;2022-12-07T07:43:02;21.75;;;16.10;;
34876;SDS011;21086;44.780;17.194;2022-12-07T07:45:29;20.80;;;14.70;;
34876;SDS011;21086;44.780;17.194;2022-12-07T07:47:56;19.38;;;13.90;;
34876;SDS011;21086;44.780;17.194;2022-12-07T07:50:23;18.50;;;13.45;;
34876;SDS011;21086;44.780;17.194;2022-12-07T07:52:51;19.27;;;12.73;;
34876;SDS011;21086;44.780;17.194;2022-12-07T07:55:18;19.90;;;13.75;;
34876;SDS011;21086;44.780;17.194;2022-12-07T07:57:45;19.13;;;12.77;;
34876;SDS011;21086;44.780;17.194;2022-12-07T08:00:20;18.67;;;11.95;;
34876;SDS011;21086;44.780;17.194;2022-12-07T08:02:47;18.63;;;13.10;;
34876;SDS011;21086;44.780;17.194;2022-12-07T08:05:14;19.23;;;13.65;;
34876;SDS011;21086;44.780;17.194;2022-12-07T08:07:42;20.77;;;13.85;;
34876;SDS011;21086;44.780;17.194;2022-12-07T08:10:10;19.00;;;12.70;;
34876;SDS011;21086;44.780;17.194;2022-12-07T08:12:39;27.75;;;17.55;;
34876;SDS011;21086;44.780;17.194;2022-12-07T08:15:29;45.20;;;24.73;;
34876;SDS011;21086;44.780;17.194;2022-12-07T08:17:57;30.98;;;23.02;;
34876;SDS011;21086;44.780;17.194;2022-12-07T08:20:25;30.08;;;21.63;;
34876;SDS011;21086;44.780;17.194;2022-12-07T08:22:52;46.17;;;26.50;;
34876;SDS011;21086;44.780;17.194;2022-12-07T08:25:19;21.08;;;13.80;;
34876;SDS011;21086;44.780;17.194;2022-12-07T08:27:48;23.42;;;16.42;;
34876;SDS011;21086;44.780;17.194;2022-12-07T08:30:15;31.52;;;20.67;;
34876;SDS011;21086;44.780;17.194;2022-12-07T08:32:46;33.25;;;21.35;;
34876;SDS011;21086;44.780;17.194;2022-12-07T08:35:14;44.42;;;26.23;;
34876;SDS011;21086;44.780;17.194;2022-12-07T08:37:41;34.20;;;23.13;;
34876;SDS011;21086;44.780;17.194;2022-12-07T08:40:09;30.02;;;21.92;;
34876;SDS011;21086;44.780;17.194;2022-12-07T08:42:37;35.13;;;22.92;;
34876;SDS011;21086;44.780;17.194;2022-12-07T08:45:07;32.28;;;21.83;;
34876;SDS011;21086;44.780;17.194;2022-12-07T08:47:52;24.52;;;18.05;;
34876;SDS011;21086;44.780;17.194;2022-12-07T08:50:23;25.08;;;17.83;;
34876;SDS011;21086;44.780;17.194;2022-12-07T08:52:52;26.38;;;18.02;;
34876;SDS011;21086;44.780;17.194;2022-12-07T08:55:23;21.83;;;16.30;;
34876;SDS011;21086;44.780;17.194;2022-12-07T08:57:51;26.20;;;17.70;;
34876;SDS011;21086;44.780;17.194;2022-12-07T09:00:18;26.25;;;18.50;;
34876;SDS011;21086;44.780;17.194;2022-12-07T09:02:45;24.77;;;18.05;;
34876;SDS011;21086;44.780;17.194;2022-12-07T09:05:13;23.58;;;17.40;;
34876;SDS011;21086;44.780;17.194;2022-12-07T09:07:46;24.17;;;18.25;;
34876;SDS011;21086;44.780;17.194;2022-12-07T09:10:16;28.92;;;19.75;;
34876;SDS011;21086;44.780;17.194;2022-12-07T09:12:44;23.48;;;17.85;;
34876;SDS011;21086;44.780;17.194;2022-12-07T09:15:11;24.05;;;17.55;;
34876;SDS011;21086;44.780;17.194;2022-12-07T09:17:38;24.23;;;15.63;;
34876;SDS011;21086;44.780;17.194;2022-12-07T09:20:05;18.20;;;14.40;;
34876;SDS011;21086;44.780;17.194;2022-12-07T09:22:32;19.10;;;13.00;;
34876;SDS011;21086;44.780;17.194;2022-12-07T09:25:00;21.50;;;15.40;;
34876;SDS011;21086;44.780;17.194;2022-12-07T09:27:27;20.02;;;14.27;;
34876;SDS011;21086;44.780;17.194;2022-12-07T09:29:55;19.58;;;13.70;;
34876;SDS011;21086;44.780;17.194;2022-12-07T09:32:22;22.50;;;15.38;;
34876;SDS011;21086;44.780;17.194;2022-12-07T09:34:49;19.35;;;14.02;;
34876;SDS011;21086;44.780;17.194;2022-12-07T09:37:16;25.73;;;17.70;;
34876;SDS011;21086;44.780;17.194;2022-12-07T09:39:43;27.73;;;18.90;;
34876;SDS011;21086;44.780;17.194;2022-12-07T09:42:35;30.17;;;18.48;;
34876;SDS011;21086;44.780;17.194;2022-12-07T09:45:10;31.60;;;19.35;;
34876;SDS011;21086;44.780;17.194;2022-12-07T09:47:40;31.23;;;20.85;;
34876;SDS011;21086;44.780;17.194;2022-12-07T09:50:19;30.33;;;21.17;;
34876;SDS011;21086;44.780;17.194;2022-12-07T09:52:47;29.77;;;21.10;;
34876;SDS011;21086;44.780;17.194;2022-12-07T09:55:16;26.17;;;18.48;;
34876;SDS011;21086;44.780;17.194;2022-12-07T09:57:49;30.85;;;18.85;;
34876;SDS011;21086;44.780;17.194;2022-12-07T10:00:18;26.25;;;16.65;;
34876;SDS011;21086;44.780;17.194;2022-12-07T10:03:01;27.15;;;18.85;;
34876;SDS011;21086;44.780;17.194;2022-12-07T10:05:30;30.27;;;21.52;;
34876;SDS011;21086;44.780;17.194;2022-12-07T10:08:03;34.47;;;22.45;;
34876;SDS011;21086;44.780;17.194;2022-12-07T10:10:31;31.75;;;21.52;;
34876;SDS011;21086;44.780;17.194;2022-12-07T10:15:54;34.33;;;21.45;;
34876;SDS011;21086;44.780;17.194;2022-12-07T10:23:42;27.67;;;17.08;;
34876;SDS011;21086;44.780;17.194;2022-12-07T10:26:37;27.55;;;18.15;;
34876;SDS011;21086;44.780;17.194;2022-12-07T10:29:20;23.42;;;15.82;;
34876;SDS011;21086;44.780;17.194;2022-12-07T10:32:04;25.02;;;16.73;;
34876;SDS011;21086;44.780;17.194;2022-12-07T10:34:32;21.50;;;16.17;;
34876;SDS011;21086;44.780;17.194;2022-12-07T10:39:56;24.55;;;18.25;;
34876;SDS011;21086;44.780;17.194;2022-12-07T10:45:15;32.80;;;20.08;;
34876;SDS011;21086;44.780;17.194;2022-12-07T10:55:48;32.75;;;20.45;;
34876;SDS011;21086;44.780;17.194;2022-12-07T11:18:28;22.98;;;17.05;;
34876;SDS011;21086;44.780;17.194;2022-12-07T11:29:01;24.27;;;17.33;;
34876;SDS011;21086;44.780;17.194;2022-12-07T11:32:08;29.08;;;20.50;;
34876;SDS011;21086;44.780;17.194;2022-12-07T11:37:31;26.20;;;18.98;;
34876;SDS011;21086;44.780;17.194;2022-12-07T11:42:45;24.52;;;18.52;;
34876;SDS011;21086;44.780;17.194;2022-12-07T11:45:26;28.70;;;20.38;;
34876;SDS011;21086;44.780;17.194;2022-12-07T11:50:41;36.13;;;23.20;;
34876;SDS011;21086;44.780;17.194;2022-12-07T11:53:23;47.25;;;32.15;;
34876;SDS011;21086;44.780;17.194;2022-12-07T11:55:56;30.75;;;19.20;;
34876;SDS011;21086;44.780;17.194;2022-12-07T12:03:47;32.42;;;22.90;;
34876;SDS011;21086;44.780;17.194;2022-12-07T12:06:19;31.38;;;22.48;;
34876;SDS011;21086;44.780;17.194;2022-12-07T12:15:18;29.35;;;20.83;;
34876;SDS011;21086;44.780;17.194;2022-12-07T12:18:01;32.80;;;22.77;;
34876;SDS011;21086;44.780;17.194;2022-12-07T12:20:46;29.48;;;19.77;;
34876;SDS011;21086;44.780;17.194;2022-12-07T12:23:37;29.40;;;19.67;;
34876;SDS011;21086;44.780;17.194;2022-12-07T12:26:07;26.52;;;18.45;;
34876;SDS011;21086;44.780;17.194;2022-12-07T12:28:58;29.00;;;19.85;;
34876;SDS011;21086;44.780;17.194;2022-12-07T12:32:06;26.10;;;18.20;;
34876;SDS011;21086;44.780;17.194;2022-12-07T12:40:57;19.88;;;14.57;;
34876;SDS011;21086;44.780;17.194;2022-12-07T12:51:53;23.20;;;16.15;;
34876;SDS011;21086;44.780;17.194;2022-12-07T12:54:27;24.50;;;16.98;;
34876;SDS011;21086;44.780;17.194;2022-12-07T12:59:38;28.60;;;18.35;;
34876;SDS011;21086;44.780;17.194;2022-12-07T13:02:38;19.15;;;14.02;;
34876;SDS011;21086;44.780;17.194;2022-12-07T13:05:16;18.13;;;12.95;;
34876;SDS011;21086;44.780;17.194;2022-12-07T13:23:18;17.83;;;12.40;;
34876;SDS011;21086;44.780;17.194;2022-12-07T13:25:50;21.10;;;13.90;;
34876;SDS011;21086;44.780;17.194;2022-12-07T13:28:25;23.23;;;16.40;;
34876;SDS011;21086;44.780;17.194;2022-12-07T13:31:04;25.75;;;17.88;;
34876;SDS011;21086;44.780;17.194;2022-12-07T13:33:36;22.65;;;16.88;;
34876;SDS011;21086;44.780;17.194;2022-12-07T13:36:03;22.27;;;15.73;;
34876;SDS011;21086;44.780;17.194;2022-12-07T13:38:34;26.73;;;19.05;;
34876;SDS011;21086;44.780;17.194;2022-12-07T13:41:04;22.98;;;15.93;;
34876;SDS011;21086;44.780;17.194;2022-12-07T13:44:23;28.05;;;17.45;;
34876;SDS011;21086;44.780;17.194;2022-12-07T13:46:40;24.40;;;16.65;;
34876;SDS011;21086;44.780;17.194;2022-12-07T13:49:31;27.55;;;18.38;;
34876;SDS011;21086;44.780;17.194;2022-12-07T13:52:17;26.80;;;17.50;;
34876;SDS011;21086;44.780;17.194;2022-12-07T13:54:49;20.48;;;14.80;;
34876;SDS011;21086;44.780;17.194;2022-12-07T13:57:33;20.48;;;14.65;;
34876;SDS011;21086;44.780;17.194;2022-12-07T14:00:03;21.75;;;14.98;;
34876;SDS011;21086;44.780;17.194;2022-12-07T14:02:32;28.52;;;18.40;;
34876;SDS011;21086;44.780;17.194;2022-12-07T14:08:00;21.33;;;15.55;;
34876;SDS011;21086;44.780;17.194;2022-12-07T14:10:29;29.80;;;18.20;;
34876;SDS011;21086;44.780;17.194;2022-12-07T14:12:58;22.65;;;14.05;;
34876;SDS011;21086;44.780;17.194;2022-12-07T14:15:28;19.75;;;12.90;;
34876;SDS011;21086;44.780;17.194;2022-12-07T14:17:58;21.10;;;14.57;;
34876;SDS011;21086;44.780;17.194;2022-12-07T14:20:30;20.13;;;14.10;;
34876;SDS011;21086;44.780;17.194;2022-12-07T14:23:03;22.35;;;15.90;;
34876;SDS011;21086;44.780;17.194;2022-12-07T14:25:47;19.90;;;16.10;;
34876;SDS011;21086;44.780;17.194;2022-12-07T14:28:30;19.92;;;14.60;;
34876;SDS011;21086;44.780;17.194;2022-12-07T14:30:59;18.23;;;14.35;;
34876;SDS011;21086;44.780;17.194;2022-12-07T14:33:27;19.85;;;14.95;;
34876;SDS011;21086;44.780;17.194;2022-12-07T14:35:54;20.05;;;15.73;;
34876;SDS011;21086;44.780;17.194;2022-12-07T14:38:24;20.05;;;14.02;;
34876;SDS011;21086;44.780;17.194;2022-12-07T14:40:53;23.65;;;16.27;;
34876;SDS011;21086;44.780;17.194;2022-12-07T14:43:21;25.33;;;17.13;;
34876;SDS011;21086;44.780;17.194;2022-12-07T14:45:48;46.97;;;27.77;;
34876;SDS011;21086;44.780;17.194;2022-12-07T14:48:15;24.58;;;16.58;;
34876;SDS011;21086;44.780;17.194;2022-12-07T14:51:02;22.67;;;15.35;;
34876;SDS011;21086;44.780;17.194;2022-12-07T14:53:50;26.10;;;17.85;;
34876;SDS011;21086;44.780;17.194;2022-12-07T14:56:22;21.92;;;16.38;;
34876;SDS011;21086;44.780;17.194;2022-12-07T14:58:50;22.77;;;16.45;;
34876;SDS011;21086;44.780;17.194;2022-12-07T15:01:17;19.90;;;15.88;;
34876;SDS011;21086;44.780;17.194;2022-12-07T15:03:44;22.70;;;16.90;;
34876;SDS011;21086;44.780;17.194;2022-12-07T15:06:13;21.15;;;16.17;;
34876;SDS011;21086;44.780;17.194;2022-12-07T15:08:43;18.90;;;13.93;;
34876;SDS011;21086;44.780;17.194;2022-12-07T15:11:13;18.10;;;12.73;;
34876;SDS011;21086;44.780;17.194;2022-12-07T15:13:42;18.15;;;12.98;;
34876;SDS011;21086;44.780;17.194;2022-12-07T15:16:27;19.17;;;14.27;;
34876;SDS011;21086;44.780;17.194;2022-12-07T15:19:16;25.45;;;17.02;;
34876;SDS011;21086;44.780;17.194;2022-12-07T15:21:54;22.63;;;16.35;;
34876;SDS011;21086;44.780;17.194;2022-12-07T15:24:22;18.73;;;13.57;;
34876;SDS011;21086;44.780;17.194;2022-12-07T15:26:51;23.90;;;16.42;;
34876;SDS011;21086;44.780;17.194;2022-12-07T15:29:18;25.77;;;17.58;;
34876;SDS011;21086;44.780;17.194;2022-12-07T15:31:49;39.67;;;26.90;;
34876;SDS011;21086;44.780;17.194;2022-12-07T15:34:27;28.35;;;18.35;;
34876;SDS011;21086;44.780;17.194;2022-12-07T15:37:04;22.10;;;15.05;;
34876;SDS011;21086;44.780;17.194;2022-12-07T15:39:32;24.52;;;16.63;;
34876;SDS011;21086;44.780;17.194;2022-12-07T15:41:59;21.38;;;16.30;;
34876;SDS011;21086;44.780;17.194;2022-12-07T15:44:26;22.83;;;16.42;;
34876;SDS011;21086;44.780;17.194;2022-12-07T15:47:12;43.92;;;27.05;;
34876;SDS011;21086;44.780;17.194;2022-12-07T15:49:39;56.35;;;34.05;;
34876;SDS011;21086;44.780;17.194;2022-12-07T15:52:06;49.67;;;32.53;;
34876;SDS011;21086;44.780;17.194;2022-12-07T15:54:33;69.20;;;44.42;;
34876;SDS011;21086;44.780;17.194;2022-12-07T15:57:00;51.67;;;33.30;;
34876;SDS011;21086;44.780;17.194;2022-12-07T15:59:27;48.53;;;32.22;;
34876;SDS011;21086;44.780;17.194;2022-12-07T16:01:55;44.75;;;29.95;;
34876;SDS011;21086;44.780;17.194;2022-12-07T16:04:23;52.85;;;35.10;;
34876;SDS011;21086;44.780;17.194;2022-12-07T16:06:51;52.25;;;35.33;;
34876;SDS011;21086;44.780;17.194;2022-12-07T16:09:18;54.05;;;36.75;;
34876;SDS011;21086;44.780;17.194;2022-12-07T16:11:45;48.10;;;32.28;;
34876;SDS011;21086;44.780;17.194;2022-12-07T16:14:12;39.55;;;26.80;;
34876;SDS011;21086;44.780;17.194;2022-12-07T16:16:39;31.55;;;20.95;;
34876;SDS011;21086;44.780;17.194;2022-12-07T16:19:08;32.97;;;22.38;;
34876;SDS011;21086;44.780;17.194;2022-12-07T16:21:37;34.22;;;23.50;;
34876;SDS011;21086;44.780;17.194;2022-12-07T16:24:04;36.80;;;25.35;;
34876;SDS011;21086;44.780;17.194;2022-12-07T16:26:32;45.25;;;32.95;;
34876;SDS011;21086;44.780;17.194;2022-12-07T16:28:59;69.55;;;45.35;;
34876;SDS011;21086;44.780;17.194;2022-12-07T16:31:26;66.35;;;44.10;;
34876;SDS011;21086;44.780;17.194;2022-12-07T16:33:55;48.05;;;34.10;;
34876;SDS011;21086;44.780;17.194;2022-12-07T16:36:24;42.55;;;29.00;;
34876;SDS011;21086;44.780;17.194;2022-12-07T16:39:13;35.70;;;25.83;;
34876;SDS011;21086;44.780;17.194;2022-12-07T16:41:41;38.22;;;26.05;;
34876;SDS011;21086;44.780;17.194;2022-12-07T16:44:09;33.60;;;25.83;;
34876;SDS011;21086;44.780;17.194;2022-12-07T16:46:36;40.08;;;26.67;;
34876;SDS011;21086;44.780;17.194;2022-12-07T16:49:04;41.03;;;28.02;;
34876;SDS011;21086;44.780;17.194;2022-12-07T16:51:31;39.33;;;26.42;;
34876;SDS011;21086;44.780;17.194;2022-12-07T16:53:58;41.55;;;27.40;;
34876;SDS011;21086;44.780;17.194;2022-12-07T16:56:25;42.50;;;29.00;;
34876;SDS011;21086;44.780;17.194;2022-12-07T16:58:53;38.92;;;27.70;;
34876;SDS011;21086;44.780;17.194;2022-12-07T17:01:21;42.15;;;26.02;;
34876;SDS011;21086;44.780;17.194;2022-12-07T17:03:54;34.08;;;22.70;;
34876;SDS011;21086;44.780;17.194;2022-12-07T17:06:23;32.08;;;20.85;;
34876;SDS011;21086;44.780;17.194;2022-12-07T17:08:53;27.08;;;18.58;;
34876;SDS011;21086;44.780;17.194;2022-12-07T17:11:22;30.13;;;21.60;;
34876;SDS011;21086;44.780;17.194;2022-12-07T17:13:52;35.58;;;22.45;;
34876;SDS011;21086;44.780;17.194;2022-12-07T17:16:38;48.03;;;29.33;;
34876;SDS011;21086;44.780;17.194;2022-12-07T17:19:06;47.85;;;31.05;;
34876;SDS011;21086;44.780;17.194;2022-12-07T17:21:34;43.17;;;27.35;;
34876;SDS011;21086;44.780;17.194;2022-12-07T17:24:02;55.13;;;35.83;;
34876;SDS011;21086;44.780;17.194;2022-12-07T17:26:31;47.83;;;30.80;;
34876;SDS011;21086;44.780;17.194;2022-12-07T17:29:01;49.90;;;29.50;;
34876;SDS011;21086;44.780;17.194;2022-12-07T17:31:30;37.50;;;24.77;;
34876;SDS011;21086;44.780;17.194;2022-12-07T17:33:59;35.20;;;24.50;;